KUVA/UVA METAR and TAF weather

Enter ICAO airport designator
Station Type Date Time Source
KUVA METAR 2019/02/18 04:55 UTC NOAA

KUVA 180455Z AUTO 07007KT 10SM CLR 11/02 A3002 RMK AO2 T01070024


Station Type Date Time Source
KUVA Decoded METAR 2019/02/18 04:55 UTC NOAA

Uvalde, Garner Field Airport, TX, United States (KUVA) 29-12-40N 099-44-36W
Feb 17, 2019 - 11:55 PM EST / 2019.02.18 0455 UTC
Wind: from the ENE (070 degrees) at 8 MPH (7 KT):0
Visibility: 10 mile(s):0
Sky conditions: clear
Temperature: 51.3 F (10.7 C)
Dew Point: 36.3 F (2.4 C)
Relative Humidity: 56%
Pressure (altimeter): 30.02 in. Hg (1016 hPa)
ob: KUVA 180455Z AUTO 07007KT 10SM CLR 11/02 A3002 RMK AO2 T01070024
cycle: 5

Station Type Date Time Source
KUVA TAF UTC NOAA

Error!


Example: see airport list